Time;durP1;ratioP1;P1;durP2;ratioP2;P2;SDS_P1;SDS_P2;PMS_P1;PMS_P2;Temp;Humidity;BMP_temperature;BMP_pressure;BME280_temperature;BME280_humidity;BME280_pressure;Samples;Min_cycle;Max_cycle;Signal;HPM_P1;HPM_P2
2022/01/28 00:01:39;;;;;;;27.92;15.25;;;4.90;86.40;;;;;;4984545;28;20047;-86
2022/01/28 00:04:15;;;;;;;20.35;15.02;;;4.90;86.40;;;;;;4993579;28;20137;-86
2022/01/28 00:06:43;;;;;;;28.13;14.88;;;4.90;86.40;;;;;;4992112;28;20050;-86
2022/01/28 00:09:10;;;;;;;25.33;14.63;;;4.90;86.40;;;;;;4993379;28;20396;-86
2022/01/28 00:11:37;;;;;;;21.52;14.98;;;4.90;86.40;;;;;;4993544;28;20054;-86
2022/01/28 00:14:22;;;;;;;33.15;14.90;;;4.90;86.40;;;;;;4978187;28;20538;-87
2022/01/28 00:38:48;;;;;;;22.13;12.85;;;4.60;86.40;;;;;;4996688;28;20042;-86
2022/01/28 00:41:15;;;;;;;21.73;11.90;;;4.60;86.40;;;;;;4996688;28;20053;-86
2022/01/28 00:43:43;;;;;;;21.13;12.05;;;4.60;86.40;;;;;;4995945;28;20046;-86
2022/01/28 00:46:10;;;;;;;19.52;12.55;;;4.60;86.40;;;;;;4996221;28;20466;-86
2022/01/28 00:48:37;;;;;;;22.08;11.43;;;4.50;86.40;;;;;;4996638;28;20056;-86
2022/01/28 00:51:04;;;;;;;21.48;11.38;;;4.50;86.40;;;;;;4996658;28;20042;-86
2022/01/28 00:53:32;;;;;;;17.02;11.70;;;4.50;86.40;;;;;;4996569;28;20499;-86
2022/01/28 00:55:59;;;;;;;25.42;11.90;;;4.50;86.40;;;;;;4996176;28;20060;-86
2022/01/28 00:58:26;;;;;;;23.13;12.15;;;4.50;86.40;;;;;;4995600;28;20053;-87
2022/01/28 01:00:53;;;;;;;21.80;10.57;;;4.50;86.40;;;;;;4996338;28;20056;-87
2022/01/28 01:03:20;;;;;;;19.20;11.63;;;4.50;86.50;;;;;;4996480;28;20520;-87
2022/01/28 01:05:47;;;;;;;16.83;11.23;;;4.50;86.50;;;;;;4996344;28;20046;-88
2022/01/28 01:08:14;;;;;;;18.38;10.18;;;4.50;86.50;;;;;;4996160;28;20054;-87
2022/01/28 01:10:42;;;;;;;20.63;10.50;;;4.50;86.50;;;;;;4993901;28;20050;-87
2022/01/28 01:13:09;;;;;;;19.05;9.82;;;4.50;86.50;;;;;;4996667;28;20052;-88
2022/01/28 01:15:41;;;;;;;18.95;10.27;;;4.40;86.50;;;;;;4995951;28;20054;-88
2022/01/28 01:23:21;;;;;;;17.17;9.52;;;4.40;86.50;;;;;;4981544;28;20046;-87
2022/01/28 01:25:56;;;;;;;20.75;10.43;;;4.40;86.50;;;;;;4995497;28;20058;-87
2022/01/28 01:28:29;;;;;;;18.90;10.35;;;4.40;86.50;;;;;;4994176;28;20384;-87
2022/01/28 01:30:58;;;;;;;20.67;10.27;;;4.40;86.50;;;;;;4995820;28;20126;-87
2022/01/28 01:33:27;;;;;;;23.33;10.50;;;4.40;86.50;;;;;;4995702;28;20133;-87
2022/01/28 01:35:54;;;;;;;16.08;9.68;;;4.30;86.50;;;;;;4995629;28;20042;-87
2022/01/28 01:38:25;;;;;;;17.58;9.27;;;4.30;86.40;;;;;;4995642;28;20057;-86
2022/01/28 01:40:57;;;;;;;21.60;10.48;;;4.30;86.50;;;;;;4995256;28;20061;-87
2022/01/28 01:46:19;;;;;;;16.67;9.85;;;4.20;86.40;;;;;;4995592;28;20054;-88
2022/01/28 01:54:18;;;;;;;18.58;10.02;;;4.20;86.40;;;;;;4995212;28;20046;-87
2022/01/28 01:56:45;;;;;;;19.70;10.48;;;4.20;86.40;;;;;;4995301;28;20042;-87
2022/01/28 01:59:13;;;;;;;21.10;9.95;;;4.20;86.40;;;;;;4995326;28;20521;-88
2022/01/28 02:01:40;;;;;;;21.50;10.15;;;4.20;86.40;;;;;;4994465;28;20052;-87
2022/01/28 02:04:08;;;;;;;19.60;10.02;;;4.10;86.40;;;;;;4995261;28;20138;-88
2022/01/28 02:06:36;;;;;;;15.02;9.27;;;4.10;86.40;;;;;;4995245;28;20137;-87
2022/01/28 02:09:04;;;;;;;17.80;10.38;;;4.10;86.40;;;;;;4994695;28;20054;-87
2022/01/28 02:11:31;;;;;;;17.02;10.15;;;4.10;86.40;;;;;;4995188;28;20046;-88
2022/01/28 02:13:59;;;;;;;17.88;10.05;;;4.00;86.40;;;;;;4994131;28;20058;-88
2022/01/28 02:16:26;;;;;;;13.48;9.52;;;4.00;86.40;;;;;;4994589;28;20062;-88
2022/01/28 02:18:55;;;;;;;16.77;10.30;;;4.00;86.30;;;;;;4994894;28;20085;-87
2022/01/28 02:21:23;;;;;;;16.73;10.30;;;4.00;86.30;;;;;;4994768;28;20057;-88
2022/01/28 02:23:56;;;;;;;19.00;10.02;;;4.00;86.30;;;;;;4994824;28;20436;-88
2022/01/28 02:26:23;;;;;;;20.42;10.63;;;4.00;86.30;;;;;;4994849;28;20410;-87
2022/01/28 02:28:55;;;;;;;20.40;10.35;;;3.90;86.30;;;;;;4994798;28;20066;-87
2022/01/28 02:31:25;;;;;;;20.00;10.00;;;4.00;86.30;;;;;;4992939;28;20054;-88
2022/01/28 02:33:55;;;;;;;20.15;9.90;;;3.90;86.30;;;;;;4994473;28;20070;-88
2022/01/28 02:36:24;;;;;;;18.52;10.18;;;3.90;86.30;;;;;;4993070;28;20109;-87
2022/01/28 02:38:55;;;;;;;17.38;10.48;;;3.90;86.30;;;;;;4994441;28;20137;-88
2022/01/28 02:41:25;;;;;;;19.00;9.93;;;3.90;86.30;;;;;;4993454;28;20515;-87
2022/01/28 02:46:25;;;;;;;20.08;10.57;;;3.90;86.30;;;;;;4993473;28;20412;-88
2022/01/28 02:49:00;;;;;;;17.90;9.65;;;3.80;86.30;;;;;;4994537;28;20464;-88
2022/01/28 02:51:27;;;;;;;18.02;10.20;;;3.80;86.30;;;;;;4994037;28;20050;-88
2022/01/28 02:53:58;;;;;;;14.63;9.57;;;3.80;86.30;;;;;;4993205;28;20046;-88
2022/01/28 02:56:37;;;;;;;17.90;10.18;;;3.70;86.30;;;;;;4993222;28;20054;-88
2022/01/28 02:59:06;;;;;;;17.35;9.88;;;3.70;86.30;;;;;;4993242;28;20056;-89
2022/01/28 03:01:34;;;;;;;16.98;9.63;;;3.70;86.30;;;;;;4989548;28;20046;-89
2022/01/28 03:04:03;;;;;;;17.48;9.80;;;3.70;86.30;;;;;;4995477;28;20058;-88
2022/01/28 03:06:30;;;;;;;16.33;9.85;;;3.70;86.20;;;;;;4994117;28;20042;-90
2022/01/28 03:09:01;;;;;;;14.98;9.15;;;3.70;86.20;;;;;;4992826;28;20137;-88
2022/01/28 03:19:41;;;;;;;16.23;10.90;;;3.50;86.20;;;;;;4993199;28;20062;-89
2022/01/28 03:22:08;;;;;;;25.65;11.63;;;3.50;86.10;;;;;;4994032;28;20050;-89
2022/01/28 03:24:36;;;;;;;27.35;12.73;;;3.50;86.20;;;;;;4994007;28;20050;-89
2022/01/28 03:27:09;;;;;;;21.85;12.32;;;3.50;86.10;;;;;;4993092;28;20503;-90
2022/01/28 03:29:36;;;;;;;22.55;12.48;;;3.50;86.10;;;;;;4996049;28;20053;-89
2022/01/28 03:32:03;;;;;;;22.45;12.82;;;3.40;86.20;;;;;;4994139;28;20056;-89
2022/01/28 03:34:31;;;;;;;20.50;13.00;;;3.50;86.20;;;;;;4992990;28;20061;-89
2022/01/28 03:36:58;;;;;;;22.38;12.35;;;3.50;86.20;;;;;;4992787;28;20530;-90
2022/01/28 03:39:25;;;;;;;24.73;12.75;;;3.40;86.20;;;;;;4992573;28;20054;-88
2022/01/28 03:41:52;;;;;;;28.38;13.60;;;3.40;86.20;;;;;;4992763;28;20050;-90
2022/01/28 03:44:19;;;;;;;24.60;13.77;;;3.40;86.20;;;;;;4995478;28;20046;-89
2022/01/28 03:46:46;;;;;;;23.35;13.40;;;3.40;86.20;;;;;;4992467;28;20132;-89
2022/01/28 03:49:13;;;;;;;22.75;12.88;;;3.40;86.30;;;;;;4991733;28;20059;-89
2022/01/28 03:51:40;;;;;;;24.27;13.73;;;3.40;86.20;;;;;;4993787;28;20053;-91
2022/01/28 03:54:07;;;;;;;26.13;13.68;;;3.40;86.30;;;;;;4992568;28;20048;-91
2022/01/28 03:56:34;;;;;;;24.52;14.00;;;3.40;86.30;;;;;;4994029;28;20460;-90
2022/01/28 03:59:02;;;;;;;21.08;12.80;;;3.40;86.30;;;;;;4992485;28;20042;-93
2022/01/28 04:01:34;;;;;;;22.27;13.73;;;3.40;86.30;;;;;;4991704;28;20507;-89
2022/01/28 04:05:32;;;;;;;22.88;13.13;;;3.40;86.30;;;;;;4993822;28;20121;-91
2022/01/28 04:12:29;;;;;;;20.15;13.23;;;3.40;86.30;;;;;;4997929;28;20051;-89
2022/01/28 04:15:19;;;;;;;23.60;12.90;;;3.40;86.30;;;;;;4997449;28;20054;-89
2022/01/28 04:17:49;;;;;;;25.50;14.93;;;3.40;86.30;;;;;;4997467;28;20100;-90
2022/01/28 04:20:16;;;;;;;25.15;13.68;;;3.40;86.30;;;;;;4997422;28;20053;-90
2022/01/28 04:22:44;;;;;;;24.48;14.02;;;3.40;86.30;;;;;;4995425;28;20054;-89
2022/01/28 04:25:12;;;;;;;20.25;14.00;;;3.30;86.20;;;;;;4996082;28;20046;-89
2022/01/28 04:27:39;;;;;;;25.15;14.30;;;3.30;86.20;;;;;;4996348;28;20053;-89
2022/01/28 04:30:07;;;;;;;27.65;13.82;;;3.30;86.20;;;;;;4997373;28;20043;-89
2022/01/28 04:32:35;;;;;;;23.67;14.00;;;3.30;86.20;;;;;;4997663;28;20048;-90
2022/01/28 04:35:03;;;;;;;24.33;13.63;;;3.30;86.20;;;;;;4995988;28;20057;-89
2022/01/28 04:40:07;;;;;;;28.30;14.98;;;3.30;86.20;;;;;;4996960;28;20051;-90
2022/01/28 04:45:11;;;;;;;25.35;13.40;;;3.30;86.20;;;;;;4998343;28;20057;-91
2022/01/28 05:00:30;;;;;;;27.75;13.95;;;3.20;86.20;;;;;;4996391;28;20050;-90
2022/01/28 05:06:22;;;;;;;19.27;12.63;;;3.20;86.20;;;;;;4996448;28;20114;-89
2022/01/28 05:27:50;;;;;;;23.58;13.63;;;3.10;86.10;;;;;;4917005;29;20070;-88
2022/01/28 05:30:17;;;;;;;26.95;13.98;;;3.10;86.10;;;;;;4917056;29;20064;-88
2022/01/28 05:32:44;;;;;;;26.92;14.07;;;3.00;86.10;;;;;;4916523;29;20048;-88
2022/01/28 05:35:11;;;;;;;24.52;13.40;;;3.00;86.10;;;;;;4916985;29;20056;-88
2022/01/28 05:37:38;;;;;;;24.02;14.15;;;3.00;86.10;;;;;;4916076;29;20044;-90
2022/01/28 05:40:06;;;;;;;24.13;14.13;;;3.00;86.10;;;;;;4916394;29;20063;-88
2022/01/28 05:42:34;;;;;;;26.92;14.90;;;3.00;86.10;;;;;;4916588;29;20052;-89
2022/01/28 05:45:01;;;;;;;24.95;14.93;;;3.00;86.10;;;;;;4916291;29;20052;-89
2022/01/28 05:47:28;;;;;;;27.98;13.68;;;3.00;86.10;;;;;;4916676;29;20202;-87
2022/01/28 05:49:55;;;;;;;24.42;14.13;;;3.00;86.10;;;;;;4901190;29;20070;-89
2022/01/28 05:52:22;;;;;;;27.77;14.15;;;3.00;86.10;;;;;;4915750;29;20415;-88
2022/01/28 05:54:49;;;;;;;33.58;15.90;;;3.00;86.10;;;;;;4920103;28;20056;-88
2022/01/28 05:57:16;;;;;;;27.95;15.10;;;3.00;86.10;;;;;;4995693;28;20045;-88
2022/01/28 05:59:43;;;;;;;28.17;15.73;;;3.00;86.10;;;;;;4995101;28;20076;-87
2022/01/28 06:02:10;;;;;;;29.45;15.38;;;3.00;86.10;;;;;;4994489;28;20065;-89
2022/01/28 06:04:39;;;;;;;26.33;14.88;;;3.00;86.10;;;;;;4994378;28;20050;-87
2022/01/28 06:07:06;;;;;;;24.90;15.60;;;2.90;86.10;;;;;;4994838;28;20419;-88
2022/01/28 06:09:33;;;;;;;27.85;15.13;;;2.90;86.10;;;;;;4994978;28;20050;-87
2022/01/28 06:12:00;;;;;;;25.48;15.15;;;2.90;86.00;;;;;;4993800;28;20042;-87
2022/01/28 06:14:27;;;;;;;36.15;16.70;;;2.90;86.10;;;;;;4994855;28;20435;-87
2022/01/28 06:16:54;;;;;;;26.10;16.05;;;2.90;86.10;;;;;;4994991;28;20057;-87
2022/01/28 06:19:21;;;;;;;28.98;16.13;;;3.00;86.10;;;;;;4994131;28;20053;-87
2022/01/28 06:21:49;;;;;;;25.90;15.20;;;2.90;86.10;;;;;;4994960;28;20050;-86
2022/01/28 06:24:16;;;;;;;26.48;14.98;;;2.90;86.10;;;;;;4994680;28;20424;-87
2022/01/28 06:26:43;;;;;;;26.77;15.55;;;2.90;86.10;;;;;;4994842;28;20054;-87
2022/01/28 06:29:12;;;;;;;27.77;16.52;;;2.90;86.00;;;;;;4994348;28;20046;-87
2022/01/28 06:31:41;;;;;;;28.92;15.32;;;2.90;86.10;;;;;;4992905;28;20054;-86
2022/01/28 06:34:08;;;;;;;30.00;16.08;;;2.90;86.10;;;;;;4993702;28;20410;-87
2022/01/28 06:36:36;;;;;;;31.27;15.52;;;2.90;86.00;;;;;;4994663;28;20050;-87
2022/01/28 06:39:04;;;;;;;32.88;16.75;;;2.90;86.00;;;;;;4996871;28;20061;-87
2022/01/28 06:41:31;;;;;;;29.13;16.30;;;2.90;86.00;;;;;;4994597;28;20058;-87
2022/01/28 06:43:58;;;;;;;27.63;16.65;;;2.90;86.00;;;;;;4994226;28;20081;-87
2022/01/28 06:46:26;;;;;;;29.10;15.75;;;2.90;86.00;;;;;;4993711;28;20113;-87
2022/01/28 06:48:53;;;;;;;25.42;15.20;;;2.90;86.00;;;;;;4994486;28;20050;-87
2022/01/28 06:51:20;;;;;;;31.00;16.60;;;2.90;86.00;;;;;;4994283;28;20052;-87
2022/01/28 06:53:48;;;;;;;29.63;16.88;;;2.90;86.00;;;;;;4994284;28;20513;-87
2022/01/28 06:56:15;;;;;;;29.25;16.30;;;2.90;86.00;;;;;;4994467;28;20046;-87
2022/01/28 06:58:42;;;;;;;28.55;16.55;;;2.90;85.90;;;;;;4991952;28;20537;-87
2022/01/28 07:01:09;;;;;;;29.92;17.15;;;2.80;85.90;;;;;;4993359;28;20050;-86
2022/01/28 07:03:37;;;;;;;34.08;17.45;;;2.80;85.90;;;;;;4994087;28;20255;-86
2022/01/28 07:06:04;;;;;;;24.77;15.43;;;2.90;86.00;;;;;;4994244;28;20054;-86
2022/01/28 07:08:31;;;;;;;26.17;15.55;;;2.80;85.90;;;;;;4993051;28;20069;-86
2022/01/28 07:10:58;;;;;;;33.47;16.45;;;2.80;85.90;;;;;;4994235;28;20053;-87
2022/01/28 07:13:27;;;;;;;30.77;17.02;;;2.80;85.90;;;;;;4991981;28;20054;-87
2022/01/28 07:15:54;;;;;;;29.75;16.95;;;2.80;85.90;;;;;;4994075;28;20047;-86
2022/01/28 07:18:24;;;;;;;30.27;16.92;;;2.80;85.90;;;;;;4994019;28;20062;-87
2022/01/28 07:20:51;;;;;;;29.00;16.65;;;2.70;85.90;;;;;;4994049;28;20525;-87
2022/01/28 07:23:18;;;;;;;33.75;17.98;;;2.70;85.90;;;;;;4993972;28;20053;-87
2022/01/28 07:25:45;;;;;;;29.75;16.58;;;2.80;85.90;;;;;;4992059;28;20046;-87
2022/01/28 07:28:12;;;;;;;32.65;17.58;;;2.70;85.90;;;;;;4993262;28;20050;-87
2022/01/28 07:30:40;;;;;;;33.65;18.00;;;2.70;85.90;;;;;;4993836;28;20054;-87
2022/01/28 07:33:08;;;;;;;31.38;18.13;;;2.70;85.90;;;;;;4992555;28;20567;-87
2022/01/28 07:35:36;;;;;;;32.30;17.50;;;2.70;86.00;;;;;;4992650;28;20050;-88
2022/01/28 07:38:04;;;;;;;36.90;17.95;;;2.80;86.00;;;;;;4993763;28;20054;-87
2022/01/28 07:40:31;;;;;;;33.28;18.05;;;2.70;85.90;;;;;;4991259;28;20490;-87
2022/01/28 07:42:58;;;;;;;29.92;17.90;;;2.70;86.00;;;;;;4990194;28;20042;-87
2022/01/28 07:45:25;;;;;;;32.83;17.92;;;2.70;86.00;;;;;;4992408;28;20073;-87
2022/01/28 07:47:53;;;;;;;33.92;18.48;;;2.70;86.00;;;;;;4993531;28;20052;-88
2022/01/28 07:50:21;;;;;;;29.05;18.23;;;2.70;86.00;;;;;;4992895;28;20050;-87
2022/01/28 07:52:48;;;;;;;37.53;18.58;;;2.70;86.00;;;;;;4992615;28;20061;-88
2022/01/28 07:55:15;;;;;;;35.90;18.23;;;2.70;86.00;;;;;;4992967;28;20057;-87
2022/01/28 07:57:42;;;;;;;34.97;18.08;;;2.70;86.00;;;;;;4992820;28;20050;-88
2022/01/28 08:00:12;;;;;;;37.28;19.27;;;2.70;86.00;;;;;;4992920;28;20046;-87
2022/01/28 08:02:42;;;;;;;35.17;18.95;;;2.70;86.00;;;;;;4993190;28;20042;-87
2022/01/28 08:05:11;;;;;;;31.35;18.40;;;2.70;86.00;;;;;;4993444;28;20054;-88
2022/01/28 08:07:38;;;;;;;35.00;19.77;;;2.70;86.00;;;;;;4991978;28;20059;-87
2022/01/28 08:10:08;;;;;;;35.28;19.85;;;2.70;86.00;;;;;;5006392;28;20534;-88
2022/01/28 08:12:52;;;;;;;32.90;18.67;;;2.70;86.00;;;;;;4994036;28;20047;-89
2022/01/28 08:15:20;;;;;;;33.53;18.77;;;2.70;86.00;;;;;;4991571;28;20538;-87
2022/01/28 08:17:48;;;;;;;33.80;19.35;;;2.70;86.00;;;;;;4992956;28;20048;-88
2022/01/28 08:20:15;;;;;;;31.05;18.63;;;2.70;86.00;;;;;;4993170;28;20578;-88
2022/01/28 08:22:47;;;;;;;29.75;18.58;;;2.70;86.00;;;;;;4990642;28;20058;-87
2022/01/28 08:25:15;;;;;;;31.85;19.20;;;2.70;86.00;;;;;;4993763;28;20062;-87
2022/01/28 08:27:43;;;;;;;37.55;20.27;;;2.70;86.00;;;;;;4992864;28;20057;-87
2022/01/28 08:30:12;;;;;;;36.15;20.58;;;2.70;86.00;;;;;;4992740;28;20046;-88
2022/01/28 08:32:41;;;;;;;36.88;20.38;;;2.70;86.00;;;;;;4992837;28;20499;-87
2022/01/28 08:35:08;;;;;;;34.38;19.40;;;2.70;86.00;;;;;;4993079;28;20050;-87
2022/01/28 08:37:37;;;;;;;36.05;19.55;;;2.70;86.00;;;;;;4990734;28;20046;-87
2022/01/28 08:40:05;;;;;;;38.90;20.48;;;2.70;86.00;;;;;;4993935;28;20125;-87
2022/01/28 08:42:32;;;;;;;37.15;20.17;;;2.70;86.10;;;;;;4992965;28;20530;-87
2022/01/28 08:44:59;;;;;;;38.88;20.05;;;2.70;86.10;;;;;;4991479;28;20054;-87
2022/01/28 08:47:27;;;;;;;35.40;19.67;;;2.70;86.10;;;;;;4992814;28;20438;-86
2022/01/28 08:49:54;;;;;;;35.78;20.10;;;2.70;86.10;;;;;;4993059;28;20064;-86
2022/01/28 08:52:21;;;;;;;39.22;21.25;;;2.80;86.10;;;;;;4995255;28;20054;-87
2022/01/28 08:54:49;;;;;;;37.72;21.15;;;2.70;86.20;;;;;;4995689;28;20054;-87
2022/01/28 08:57:16;;;;;;;52.05;22.67;;;2.80;86.20;;;;;;4998508;28;20050;-87
2022/01/28 08:59:44;;;;;;;38.95;21.05;;;2.80;86.20;;;;;;4995905;28;20045;-88
2022/01/28 09:02:11;;;;;;;45.30;23.55;;;2.80;86.30;;;;;;4994881;28;20067;-89
2022/01/28 09:04:39;;;;;;;46.13;23.48;;;2.80;86.30;;;;;;4994264;28;20046;-88
2022/01/28 09:07:06;;;;;;;51.15;24.17;;;2.90;86.30;;;;;;4995457;28;20066;-89
2022/01/28 09:09:35;;;;;;;43.25;23.08;;;2.90;86.30;;;;;;4994654;28;20058;-88
2022/01/28 09:12:07;;;;;;;89.50;33.70;;;2.90;86.40;;;;;;4995023;28;20050;-87
2022/01/28 09:14:35;;;;;;;60.42;28.17;;;2.90;86.40;;;;;;4995640;28;20050;-89
2022/01/28 09:17:02;;;;;;;72.35;32.33;;;2.90;86.50;;;;;;4994805;28;20054;-88
2022/01/28 09:19:29;;;;;;;62.40;30.90;;;2.90;86.50;;;;;;4995267;28;20427;-89
2022/01/28 09:21:56;;;;;;;78.30;33.60;;;3.00;86.50;;;;;;4995464;28;20054;-89
2022/01/28 09:24:23;;;;;;;64.65;31.15;;;3.10;86.50;;;;;;4995620;28;20055;-89
2022/01/28 09:26:51;;;;;;;67.82;31.42;;;3.10;86.60;;;;;;4995859;28;20058;-90
2022/01/28 09:29:21;;;;;;;71.47;31.45;;;3.10;86.60;;;;;;4994802;28;20064;-90
2022/01/28 09:31:48;;;;;;;59.30;30.58;;;3.20;86.60;;;;;;4994478;28;20050;-90
2022/01/28 09:34:15;;;;;;;63.63;29.92;;;3.20;86.70;;;;;;4996303;28;20069;-89
2022/01/28 09:36:42;;;;;;;60.63;30.55;;;3.30;86.70;;;;;;4994374;28;20065;-90
2022/01/28 09:39:09;;;;;;;57.70;30.45;;;3.20;86.70;;;;;;4994075;28;20039;-90
2022/01/28 09:41:36;;;;;;;57.63;28.25;;;3.30;86.80;;;;;;4994395;28;20442;-90
2022/01/28 09:44:06;;;;;;;64.32;29.80;;;3.40;86.80;;;;;;4995321;28;20068;-89
2022/01/28 09:46:34;;;;;;;66.88;31.40;;;3.40;86.80;;;;;;4995114;28;20105;-89
2022/01/28 09:49:02;;;;;;;65.38;30.55;;;3.50;86.90;;;;;;4994285;28;20463;-87
2022/01/28 09:51:29;;;;;;;82.60;32.25;;;3.50;87.00;;;;;;4994649;28;20046;-87
2022/01/28 09:53:56;;;;;;;77.03;31.55;;;3.60;87.00;;;;;;4994116;28;20053;-88
2022/01/28 09:56:23;;;;;;;69.65;31.02;;;3.60;87.00;;;;;;4995086;28;20046;-87
2022/01/28 09:58:50;;;;;;;68.80;31.45;;;3.70;87.10;;;;;;4994595;28;20054;-88
2022/01/28 10:01:17;;;;;;;76.90;32.35;;;3.90;87.20;;;;;;4992330;28;20056;-88
2022/01/28 10:03:45;;;;;;;67.18;31.60;;;3.90;87.20;;;;;;4994521;28;20058;-88
2022/01/28 10:06:13;;;;;;;72.95;32.03;;;4.00;87.30;;;;;;4994321;28;20050;-87
2022/01/28 10:08:52;;;;;;;83.50;33.03;;;4.10;87.40;;;;;;4993720;28;20050;-87
2022/01/28 10:11:19;;;;;;;98.57;34.03;;;4.20;87.60;;;;;;4994819;28;20042;-87
2022/01/28 10:13:55;;;;;;;92.50;35.83;;;4.30;87.70;;;;;;4994049;28;20050;-87
2022/01/28 10:16:27;;;;;;;95.22;35.92;;;4.50;87.90;;;;;;4992750;28;20415;-88
2022/01/28 10:18:55;;;;;;;116.70;39.38;;;4.70;88.00;;;;;;4993210;28;20051;-87
2022/01/28 10:21:31;;;;;;;102.97;38.05;;;4.90;88.00;;;;;;4992734;28;20057;-87
2022/01/28 10:24:04;;;;;;;103.10;38.58;;;5.20;88.10;;;;;;4994390;28;20048;-87
2022/01/28 10:26:37;;;;;;;95.57;38.88;;;5.50;88.10;;;;;;4993709;28;20046;-87
2022/01/28 10:29:15;;;;;;;104.88;38.72;;;5.80;88.10;;;;;;4994274;28;20144;-88
2022/01/28 10:31:58;;;;;;;95.70;37.13;;;6.00;88.00;;;;;;4990765;28;20078;-89
2022/01/28 10:34:38;;;;;;;83.38;36.10;;;6.20;87.90;;;;;;4992839;28;20073;-89
2022/01/28 10:37:13;;;;;;;76.65;32.13;;;6.50;87.70;;;;;;4993372;28;20511;-88
2022/01/28 10:39:45;;;;;;;77.07;29.17;;;6.70;87.60;;;;;;4994490;28;20046;-88
2022/01/28 10:42:32;;;;;;;66.18;25.95;;;6.90;87.50;;;;;;4993065;28;20076;-88
2022/01/28 10:45:00;;;;;;;55.03;23.08;;;7.10;87.40;;;;;;4993837;28;20531;-89
2022/01/28 10:47:35;;;;;;;49.40;21.20;;;7.30;87.30;;;;;;4993180;28;20081;-88
2022/01/28 10:50:18;;;;;;;42.58;19.73;;;7.50;87.20;;;;;;4992707;28;20042;-88
2022/01/28 10:52:46;;;;;;;33.67;17.30;;;7.70;87.10;;;;;;4990553;28;20684;-89
2022/01/28 10:55:19;;;;;;;38.10;15.05;;;7.90;87.00;;;;;;4993673;28;20056;-88
2022/01/28 10:58:01;;;;;;;38.85;15.30;;;8.00;86.80;;;;;;4993750;28;20050;-88
2022/01/28 11:00:34;;;;;;;29.90;13.50;;;8.20;86.70;;;;;;4993818;28;20072;-90
2022/01/28 11:03:07;;;;;;;27.63;15.35;;;8.30;86.50;;;;;;4993824;28;20050;-88
2022/01/28 11:05:36;;;;;;;24.88;12.43;;;8.50;86.30;;;;;;4994877;28;20137;-88
2022/01/28 11:08:06;;;;;;;23.67;10.98;;;8.60;86.10;;;;;;4993724;28;20065;-89
2022/01/28 11:10:33;;;;;;;22.23;11.50;;;8.70;85.90;;;;;;4987781;28;20150;-88
2022/01/28 11:13:01;;;;;;;27.45;11.35;;;8.80;85.70;;;;;;4993458;28;20423;-87
2022/01/28 11:15:30;;;;;;;21.75;9.65;;;8.90;85.50;;;;;;4993007;28;20054;-87
2022/01/28 11:17:59;;;;;;;19.17;9.38;;;9.00;85.20;;;;;;4993812;28;20053;-88
2022/01/28 11:20:38;;;;;;;19.80;9.82;;;9.10;85.00;;;;;;4993101;28;20141;-89
2022/01/28 11:23:13;;;;;;;21.25;8.75;;;9.30;84.70;;;;;;4978247;28;20046;-88
2022/01/28 11:26:06;;;;;;;17.50;8.80;;;9.40;84.50;;;;;;4988500;28;20051;-89
2022/01/28 11:28:47;;;;;;;20.70;9.30;;;9.50;84.20;;;;;;4992815;28;20050;-89
2022/01/28 11:31:15;;;;;;;21.27;9.45;;;9.60;83.90;;;;;;4994565;28;20129;-90
2022/01/28 11:33:50;;;;;;;21.08;8.05;;;9.60;83.60;;;;;;4993206;28;20054;-89
2022/01/28 11:36:34;;;;;;;18.73;7.55;;;9.70;83.20;;;;;;4993067;28;20060;-89
2022/01/28 11:39:09;;;;;;;20.10;8.25;;;9.70;82.80;;;;;;4985427;28;20056;-89
2022/01/28 11:41:36;;;;;;;21.75;7.82;;;9.80;82.60;;;;;;4992328;28;20064;-88
2022/01/28 11:44:04;;;;;;;21.02;8.43;;;9.80;82.30;;;;;;4993325;28;20048;-88
2022/01/28 11:46:37;;;;;;;18.05;8.65;;;9.80;82.00;;;;;;4992552;28;20082;-87
2022/01/28 11:49:07;;;;;;;21.65;10.00;;;9.90;81.80;;;;;;4991434;28;20522;-89
2022/01/28 11:51:37;;;;;;;23.05;9.80;;;9.90;81.60;;;;;;4993023;28;20141;-88
2022/01/28 11:54:05;;;;;;;19.42;8.57;;;9.90;81.40;;;;;;4992088;28;20043;-87
2022/01/28 11:56:36;;;;;;;20.77;9.45;;;9.90;81.20;;;;;;4993475;28;20054;-87
2022/01/28 11:59:07;;;;;;;22.98;9.35;;;9.90;81.00;;;;;;4991746;28;20144;-87
2022/01/28 12:01:41;;;;;;;18.25;10.20;;;9.90;80.60;;;;;;4983923;28;20053;-88
2022/01/28 12:04:26;;;;;;;19.67;10.43;;;9.90;80.40;;;;;;4993014;28;20054;-88
2022/01/28 12:07:01;;;;;;;24.90;11.40;;;9.90;80.10;;;;;;4992849;28;20057;-89
2022/01/28 12:09:34;;;;;;;21.02;11.52;;;9.90;80.00;;;;;;4992073;28;20487;-88
2022/01/28 12:12:02;;;;;;;20.98;10.18;;;9.90;79.80;;;;;;4991673;28;20042;-87
2022/01/28 12:14:59;;;;;;;22.70;12.90;;;9.90;79.70;;;;;;4993145;28;20054;-88
2022/01/28 12:17:30;;;;;;;22.75;12.57;;;10.00;79.60;;;;;;4980728;28;20073;-88
2022/01/28 12:20:15;;;;;;;22.65;11.82;;;9.90;79.50;;;;;;4991802;28;20065;-88
2022/01/28 12:23:10;;;;;;;20.98;11.05;;;9.90;79.40;;;;;;4988144;28;20065;-88
2022/01/28 12:25:43;;;;;;;20.30;10.55;;;10.00;79.30;;;;;;4988590;28;20054;-88
2022/01/28 12:28:41;;;;;;;24.43;11.17;;;10.00;79.20;;;;;;4996343;28;20507;-88
2022/01/28 12:31:26;;;;;;;22.15;10.73;;;10.00;79.00;;;;;;4984553;28;20046;-87
2022/01/28 12:33:56;;;;;;;18.67;10.10;;;10.00;78.80;;;;;;4996931;28;20137;-87
2022/01/28 12:36:33;;;;;;;19.08;9.68;;;9.90;78.60;;;;;;4996727;28;20137;-90
2022/01/28 12:39:11;;;;;;;19.88;10.43;;;9.90;78.40;;;;;;4988448;28;20049;-88
2022/01/28 12:41:53;;;;;;;19.77;10.07;;;9.90;78.20;;;;;;4995125;28;20058;-89
2022/01/28 12:44:22;;;;;;;17.58;9.70;;;9.90;78.10;;;;;;4982302;28;20062;-88
2022/01/28 12:46:57;;;;;;;22.58;11.48;;;9.90;78.10;;;;;;4994763;28;20055;-88
2022/01/28 12:49:28;;;;;;;19.35;9.02;;;9.90;78.00;;;;;;4994332;28;20046;-88
2022/01/28 12:51:58;;;;;;;18.40;9.82;;;9.80;78.00;;;;;;4995449;28;20058;-88
2022/01/28 12:54:43;;;;;;;18.48;10.20;;;9.80;77.90;;;;;;4996349;28;20042;-88
2022/01/28 12:57:20;;;;;;;18.50;10.68;;;9.70;77.90;;;;;;4996002;28;20057;-87
2022/01/28 12:59:49;;;;;;;23.38;10.43;;;9.70;78.00;;;;;;4996138;28;20052;-88
2022/01/28 13:02:18;;;;;;;22.85;10.63;;;9.70;78.00;;;;;;4996189;28;20068;-88
2022/01/28 13:05:10;;;;;;;20.05;9.82;;;9.70;78.10;;;;;;4995090;28;20393;-87
2022/01/28 13:10:31;;;;;;;24.48;12.40;;;9.60;78.20;;;;;;4994594;28;20054;-88
2022/01/28 13:13:07;;;;;;;22.10;11.75;;;9.60;78.20;;;;;;4995480;28;20054;-87
2022/01/28 13:15:35;;;;;;;21.63;11.02;;;9.60;78.30;;;;;;4994385;28;20049;-87
2022/01/28 13:18:05;;;;;;;19.38;11.43;;;9.60;78.30;;;;;;4995948;28;20050;-87
2022/01/28 13:20:39;;;;;;;20.65;10.77;;;9.60;78.40;;;;;;4995643;28;20482;-87
2022/01/28 13:23:09;;;;;;;24.35;12.23;;;9.60;78.40;;;;;;4980236;28;20050;-87
2022/01/28 13:25:37;;;;;;;17.73;10.60;;;9.70;78.40;;;;;;4991117;28;20145;-87
2022/01/28 13:28:13;;;;;;;17.92;10.73;;;9.70;78.40;;;;;;4995730;28;20050;-87
2022/01/28 13:30:41;;;;;;;20.00;10.65;;;9.70;78.30;;;;;;4994279;28;20055;-88
2022/01/28 13:33:10;;;;;;;18.65;10.45;;;9.80;78.30;;;;;;4994278;28;20064;-86
2022/01/28 13:35:39;;;;;;;18.63;10.75;;;9.80;78.20;;;;;;4994558;28;20050;-86
2022/01/28 13:38:19;;;;;;;20.77;10.40;;;9.90;78.20;;;;;;4988915;28;20068;-87
2022/01/28 13:40:46;;;;;;;20.88;10.60;;;9.80;78.10;;;;;;4994495;28;20051;-87
2022/01/28 13:43:19;;;;;;;17.73;10.52;;;9.90;78.10;;;;;;4994695;28;20046;-87
2022/01/28 13:45:58;;;;;;;21.08;12.05;;;9.90;78.00;;;;;;4994278;28;20078;-89
2022/01/28 13:48:37;;;;;;;21.63;13.07;;;9.90;78.00;;;;;;4994861;28;20060;-87
2022/01/28 13:51:14;;;;;;;19.60;11.05;;;9.90;78.10;;;;;;4995057;28;20133;-88
2022/01/28 13:56:43;;;;;;;18.85;11.57;;;9.90;78.10;;;;;;4994992;28;20042;-87
2022/01/28 13:59:13;;;;;;;22.75;12.98;;;9.90;78.10;;;;;;4980093;28;20088;-87
2022/01/28 14:01:48;;;;;;;20.27;12.32;;;9.80;78.10;;;;;;4993991;28;20052;-87
2022/01/28 14:04:35;;;;;;;19.05;11.98;;;9.80;78.10;;;;;;4990532;28;20520;-87
2022/01/28 14:07:23;;;;;;;19.02;12.00;;;9.80;78.10;;;;;;4996179;28;20113;-87
2022/01/28 14:10:00;;;;;;;21.00;12.65;;;9.70;78.10;;;;;;4994798;28;20105;-87
2022/01/28 14:12:40;;;;;;;20.33;12.48;;;9.70;78.10;;;;;;4994230;28;20449;-87
2022/01/28 14:16:12;;;;;;;22.17;13.35;;;9.70;78.20;;;;;;4994693;28;20050;-87
2022/01/28 14:18:03;;;;;;;22.48;13.07;;;9.60;78.20;;;;;;4986734;28;20054;-87
2022/01/28 14:20:31;;;;;;;20.58;12.65;;;9.60;78.30;;;;;;4994970;28;20054;-88
2022/01/28 14:22:59;;;;;;;18.65;12.57;;;9.50;78.30;;;;;;4992912;28;20049;-87
2022/01/28 14:25:26;;;;;;;20.58;13.50;;;9.50;78.30;;;;;;4992477;28;20148;-88
2022/01/28 14:30:41;;;;;;;20.50;12.15;;;9.40;78.40;;;;;;4994633;28;20060;-88
2022/01/28 14:33:10;;;;;;;22.38;13.57;;;9.40;78.50;;;;;;4994193;28;20507;-87
2022/01/28 14:35:39;;;;;;;25.30;12.75;;;9.40;78.50;;;;;;4994515;28;20060;-87